sensor_id;sensor_type;location;lat;lon;timestamp;P1;durP1;ratioP1;P2;durP2;ratioP2
70071;SDS011;57434;42.794;23.302;2023-01-08T00:00:04;39.25;;;17.40;;
70071;SDS011;57434;42.794;23.302;2023-01-08T00:01:08;36.92;;;17.15;;
70071;SDS011;57434;42.794;23.302;2023-01-08T00:02:11;32.95;;;15.85;;
70071;SDS011;57434;42.794;23.302;2023-01-08T00:03:13;40.15;;;15.55;;
70071;SDS011;57434;42.794;23.302;2023-01-08T00:04:16;39.47;;;17.88;;
70071;SDS011;57434;42.794;23.302;2023-01-08T00:05:18;36.58;;;16.00;;
70071;SDS011;57434;42.794;23.302;2023-01-08T00:06:20;38.23;;;16.47;;
70071;SDS011;57434;42.794;23.302;2023-01-08T00:07:22;45.22;;;17.42;;
70071;SDS011;57434;42.794;23.302;2023-01-08T00:08:24;45.22;;;17.70;;
70071;SDS011;57434;42.794;23.302;2023-01-08T00:09:26;51.95;;;19.55;;
70071;SDS011;57434;42.794;23.302;2023-01-08T00:10:28;43.65;;;18.27;;
70071;SDS011;57434;42.794;23.302;2023-01-08T00:11:30;41.47;;;17.75;;
70071;SDS011;57434;42.794;23.302;2023-01-08T00:12:31;41.60;;;19.27;;
70071;SDS011;57434;42.794;23.302;2023-01-08T00:13:33;40.90;;;18.70;;
70071;SDS011;57434;42.794;23.302;2023-01-08T00:14:35;49.67;;;19.63;;
70071;SDS011;57434;42.794;23.302;2023-01-08T00:15:37;41.55;;;18.10;;
70071;SDS011;57434;42.794;23.302;2023-01-08T00:16:39;44.63;;;19.50;;
70071;SDS011;57434;42.794;23.302;2023-01-08T00:17:41;41.45;;;17.38;;
70071;SDS011;57434;42.794;23.302;2023-01-08T00:18:43;45.85;;;21.08;;
70071;SDS011;57434;42.794;23.302;2023-01-08T00:19:46;45.47;;;19.65;;
70071;SDS011;57434;42.794;23.302;2023-01-08T00:20:48;53.67;;;21.15;;
70071;SDS011;57434;42.794;23.302;2023-01-08T00:21:49;49.70;;;19.38;;
70071;SDS011;57434;42.794;23.302;2023-01-08T00:22:51;53.67;;;21.75;;
70071;SDS011;57434;42.794;23.302;2023-01-08T00:23:53;44.25;;;19.15;;
70071;SDS011;57434;42.794;23.302;2023-01-08T00:24:55;44.13;;;20.23;;
70071;SDS011;57434;42.794;23.302;2023-01-08T00:25:59;43.10;;;20.25;;
70071;SDS011;57434;42.794;23.302;2023-01-08T00:27:02;44.70;;;18.67;;
70071;SDS011;57434;42.794;23.302;2023-01-08T00:28:03;47.35;;;18.95;;
70071;SDS011;57434;42.794;23.302;2023-01-08T00:29:05;52.67;;;21.10;;
70071;SDS011;57434;42.794;23.302;2023-01-08T00:30:07;56.83;;;22.42;;
70071;SDS011;57434;42.794;23.302;2023-01-08T00:31:10;50.88;;;21.55;;
70071;SDS011;57434;42.794;23.302;2023-01-08T00:32:13;48.08;;;19.38;;
70071;SDS011;57434;42.794;23.302;2023-01-08T00:33:14;53.55;;;20.33;;
70071;SDS011;57434;42.794;23.302;2023-01-08T00:34:17;47.22;;;18.90;;
70071;SDS011;57434;42.794;23.302;2023-01-08T00:35:18;39.75;;;17.70;;
70071;SDS011;57434;42.794;23.302;2023-01-08T00:36:20;47.55;;;19.95;;
70071;SDS011;57434;42.794;23.302;2023-01-08T00:37:22;44.60;;;18.97;;
70071;SDS011;57434;42.794;23.302;2023-01-08T00:38:24;42.13;;;17.35;;
70071;SDS011;57434;42.794;23.302;2023-01-08T00:39:27;38.78;;;15.77;;
70071;SDS011;57434;42.794;23.302;2023-01-08T00:40:29;42.65;;;17.25;;
70071;SDS011;57434;42.794;23.302;2023-01-08T00:41:30;38.88;;;16.63;;
70071;SDS011;57434;42.794;23.302;2023-01-08T00:42:32;40.60;;;15.77;;
70071;SDS011;57434;42.794;23.302;2023-01-08T00:43:34;37.42;;;16.30;;
70071;SDS011;57434;42.794;23.302;2023-01-08T00:44:36;30.48;;;14.10;;
70071;SDS011;57434;42.794;23.302;2023-01-08T00:45:38;35.53;;;16.23;;
70071;SDS011;57434;42.794;23.302;2023-01-08T00:46:40;40.15;;;16.35;;
70071;SDS011;57434;42.794;23.302;2023-01-08T00:47:42;37.57;;;16.90;;
70071;SDS011;57434;42.794;23.302;2023-01-08T00:48:43;37.80;;;16.05;;
70071;SDS011;57434;42.794;23.302;2023-01-08T00:49:45;42.47;;;15.77;;
70071;SDS011;57434;42.794;23.302;2023-01-08T00:50:49;35.78;;;14.75;;
70071;SDS011;57434;42.794;23.302;2023-01-08T00:51:52;39.88;;;15.40;;
70071;SDS011;57434;42.794;23.302;2023-01-08T00:52:54;31.55;;;15.13;;
70071;SDS011;57434;42.794;23.302;2023-01-08T00:53:56;33.05;;;14.15;;
70071;SDS011;57434;42.794;23.302;2023-01-08T00:54:57;41.10;;;16.63;;
70071;SDS011;57434;42.794;23.302;2023-01-08T00:56:00;40.20;;;16.55;;
70071;SDS011;57434;42.794;23.302;2023-01-08T00:57:04;37.78;;;18.80;;
70071;SDS011;57434;42.794;23.302;2023-01-08T00:58:06;34.90;;;14.13;;
70071;SDS011;57434;42.794;23.302;2023-01-08T00:59:08;35.70;;;13.90;;
70071;SDS011;57434;42.794;23.302;2023-01-08T01:00:13;31.05;;;13.10;;
70071;SDS011;57434;42.794;23.302;2023-01-08T01:01:16;30.27;;;13.07;;
70071;SDS011;57434;42.794;23.302;2023-01-08T01:02:18;30.55;;;12.90;;
70071;SDS011;57434;42.794;23.302;2023-01-08T01:03:20;28.08;;;13.25;;
70071;SDS011;57434;42.794;23.302;2023-01-08T01:04:24;30.10;;;13.23;;
70071;SDS011;57434;42.794;23.302;2023-01-08T01:05:27;33.17;;;13.20;;
70071;SDS011;57434;42.794;23.302;2023-01-08T01:06:28;31.15;;;13.00;;
70071;SDS011;57434;42.794;23.302;2023-01-08T01:07:30;28.77;;;12.43;;
70071;SDS011;57434;42.794;23.302;2023-01-08T01:08:34;33.00;;;14.73;;
70071;SDS011;57434;42.794;23.302;2023-01-08T01:09:36;34.15;;;14.88;;
70071;SDS011;57434;42.794;23.302;2023-01-08T01:10:38;33.75;;;13.52;;
70071;SDS011;57434;42.794;23.302;2023-01-08T01:11:40;32.20;;;13.00;;
70071;SDS011;57434;42.794;23.302;2023-01-08T01:12:42;27.60;;;11.40;;
70071;SDS011;57434;42.794;23.302;2023-01-08T01:13:44;32.08;;;12.60;;
70071;SDS011;57434;42.794;23.302;2023-01-08T01:14:45;26.35;;;12.55;;
70071;SDS011;57434;42.794;23.302;2023-01-08T01:15:57;31.92;;;14.07;;
70071;SDS011;57434;42.794;23.302;2023-01-08T01:17:00;29.40;;;12.05;;
70071;SDS011;57434;42.794;23.302;2023-01-08T01:18:01;25.88;;;12.35;;
70071;SDS011;57434;42.794;23.302;2023-01-08T01:19:03;25.37;;;12.03;;
70071;SDS011;57434;42.794;23.302;2023-01-08T01:20:06;29.00;;;12.77;;
70071;SDS011;57434;42.794;23.302;2023-01-08T01:21:11;35.38;;;14.65;;
70071;SDS011;57434;42.794;23.302;2023-01-08T01:22:19;33.20;;;13.07;;
70071;SDS011;57434;42.794;23.302;2023-01-08T01:23:20;26.90;;;12.63;;
70071;SDS011;57434;42.794;23.302;2023-01-08T01:24:22;31.73;;;13.80;;
70071;SDS011;57434;42.794;23.302;2023-01-08T01:25:24;28.55;;;12.98;;
70071;SDS011;57434;42.794;23.302;2023-01-08T01:26:26;34.25;;;14.10;;
70071;SDS011;57434;42.794;23.302;2023-01-08T01:27:28;35.88;;;14.07;;
70071;SDS011;57434;42.794;23.302;2023-01-08T01:28:30;33.65;;;13.32;;
70071;SDS011;57434;42.794;23.302;2023-01-08T01:29:31;32.70;;;13.00;;
70071;SDS011;57434;42.794;23.302;2023-01-08T01:30:33;29.83;;;14.27;;
70071;SDS011;57434;42.794;23.302;2023-01-08T01:31:35;35.25;;;14.13;;
70071;SDS011;57434;42.794;23.302;2023-01-08T01:32:37;30.05;;;13.38;;
70071;SDS011;57434;42.794;23.302;2023-01-08T01:33:39;24.83;;;12.05;;
70071;SDS011;57434;42.794;23.302;2023-01-08T01:34:42;29.95;;;12.23;;
70071;SDS011;57434;42.794;23.302;2023-01-08T01:35:44;28.23;;;11.82;;
70071;SDS011;57434;42.794;23.302;2023-01-08T01:36:45;27.98;;;12.57;;
70071;SDS011;57434;42.794;23.302;2023-01-08T01:37:47;28.63;;;12.70;;
70071;SDS011;57434;42.794;23.302;2023-01-08T01:38:49;30.17;;;12.30;;
70071;SDS011;57434;42.794;23.302;2023-01-08T01:39:53;28.00;;;12.30;;
70071;SDS011;57434;42.794;23.302;2023-01-08T01:40:55;28.60;;;11.90;;
70071;SDS011;57434;42.794;23.302;2023-01-08T01:41:56;29.92;;;13.27;;
70071;SDS011;57434;42.794;23.302;2023-01-08T01:42:58;30.58;;;12.95;;
70071;SDS011;57434;42.794;23.302;2023-01-08T01:44:32;27.13;;;12.20;;
70071;SDS011;57434;42.794;23.302;2023-01-08T01:45:41;25.98;;;10.95;;
70071;SDS011;57434;42.794;23.302;2023-01-08T01:46:43;28.80;;;12.02;;
70071;SDS011;57434;42.794;23.302;2023-01-08T01:47:50;36.13;;;13.32;;
70071;SDS011;57434;42.794;23.302;2023-01-08T01:48:58;35.92;;;15.20;;
70071;SDS011;57434;42.794;23.302;2023-01-08T01:50:07;30.52;;;13.73;;
70071;SDS011;57434;42.794;23.302;2023-01-08T01:51:18;28.33;;;11.80;;
70071;SDS011;57434;42.794;23.302;2023-01-08T01:52:21;30.10;;;12.88;;
70071;SDS011;57434;42.794;23.302;2023-01-08T01:53:31;37.28;;;14.80;;
70071;SDS011;57434;42.794;23.302;2023-01-08T01:54:35;27.00;;;12.82;;
70071;SDS011;57434;42.794;23.302;2023-01-08T01:55:38;33.53;;;13.10;;
70071;SDS011;57434;42.794;23.302;2023-01-08T01:56:42;30.58;;;13.10;;
70071;SDS011;57434;42.794;23.302;2023-01-08T01:57:50;31.17;;;13.27;;
70071;SDS011;57434;42.794;23.302;2023-01-08T01:58:58;35.00;;;13.02;;
70071;SDS011;57434;42.794;23.302;2023-01-08T02:00:00;26.73;;;12.75;;
70071;SDS011;57434;42.794;23.302;2023-01-08T02:01:05;27.13;;;12.63;;
70071;SDS011;57434;42.794;23.302;2023-01-08T02:02:08;31.93;;;14.73;;
70071;SDS011;57434;42.794;23.302;2023-01-08T02:03:11;31.20;;;13.45;;
70071;SDS011;57434;42.794;23.302;2023-01-08T02:04:15;33.38;;;13.13;;
70071;SDS011;57434;42.794;23.302;2023-01-08T02:05:16;34.60;;;12.68;;
70071;SDS011;57434;42.794;23.302;2023-01-08T02:07:42;28.90;;;11.35;;
70071;SDS011;57434;42.794;23.302;2023-01-08T02:09:00;32.90;;;11.90;;
70071;SDS011;57434;42.794;23.302;2023-01-08T02:10:10;24.92;;;10.63;;
70071;SDS011;57434;42.794;23.302;2023-01-08T02:12:41;29.40;;;10.55;;
70071;SDS011;57434;42.794;23.302;2023-01-08T02:13:49;24.67;;;10.53;;
70071;SDS011;57434;42.794;23.302;2023-01-08T02:15:21;26.92;;;10.88;;
70071;SDS011;57434;42.794;23.302;2023-01-08T02:17:48;31.77;;;10.95;;
70071;SDS011;57434;42.794;23.302;2023-01-08T02:19:00;23.83;;;9.90;;
70071;SDS011;57434;42.794;23.302;2023-01-08T02:21:22;33.28;;;12.82;;
70071;SDS011;57434;42.794;23.302;2023-01-08T02:24:05;33.47;;;12.70;;
70071;SDS011;57434;42.794;23.302;2023-01-08T02:26:37;28.53;;;12.13;;
70071;SDS011;57434;42.794;23.302;2023-01-08T02:27:39;32.88;;;13.60;;
70071;SDS011;57434;42.794;23.302;2023-01-08T02:28:47;29.70;;;13.43;;
70071;SDS011;57434;42.794;23.302;2023-01-08T02:29:55;34.42;;;13.85;;
70071;SDS011;57434;42.794;23.302;2023-01-08T02:30:58;28.55;;;13.23;;
70071;SDS011;57434;42.794;23.302;2023-01-08T02:32:00;32.08;;;14.30;;
70071;SDS011;57434;42.794;23.302;2023-01-08T02:33:02;31.85;;;13.15;;
70071;SDS011;57434;42.794;23.302;2023-01-08T02:34:04;31.73;;;13.85;;
70071;SDS011;57434;42.794;23.302;2023-01-08T02:35:07;32.80;;;13.88;;
70071;SDS011;57434;42.794;23.302;2023-01-08T02:37:24;36.37;;;15.50;;
70071;SDS011;57434;42.794;23.302;2023-01-08T02:38:26;33.10;;;13.63;;
70071;SDS011;57434;42.794;23.302;2023-01-08T02:40:53;30.83;;;12.85;;
70071;SDS011;57434;42.794;23.302;2023-01-08T02:42:13;27.60;;;12.10;;
70071;SDS011;57434;42.794;23.302;2023-01-08T02:43:39;31.08;;;11.82;;
70071;SDS011;57434;42.794;23.302;2023-01-08T02:46:09;29.35;;;11.75;;
70071;SDS011;57434;42.794;23.302;2023-01-08T02:47:17;27.20;;;12.07;;
70071;SDS011;57434;42.794;23.302;2023-01-08T02:49:50;24.60;;;12.17;;
70071;SDS011;57434;42.794;23.302;2023-01-08T02:52:29;25.38;;;11.57;;
70071;SDS011;57434;42.794;23.302;2023-01-08T02:53:40;26.67;;;13.45;;
70071;SDS011;57434;42.794;23.302;2023-01-08T02:54:45;32.95;;;12.35;;
70071;SDS011;57434;42.794;23.302;2023-01-08T02:55:50;27.75;;;12.52;;
70071;SDS011;57434;42.794;23.302;2023-01-08T02:56:58;27.58;;;12.52;;
70071;SDS011;57434;42.794;23.302;2023-01-08T02:58:10;29.27;;;12.55;;
70071;SDS011;57434;42.794;23.302;2023-01-08T02:59:13;32.72;;;12.77;;
70071;SDS011;57434;42.794;23.302;2023-01-08T03:00:17;31.67;;;12.90;;
70071;SDS011;57434;42.794;23.302;2023-01-08T03:01:20;35.03;;;11.60;;
70071;SDS011;57434;42.794;23.302;2023-01-08T03:02:24;32.83;;;13.68;;
70071;SDS011;57434;42.794;23.302;2023-01-08T03:03:31;26.70;;;11.35;;
70071;SDS011;57434;42.794;23.302;2023-01-08T03:04:35;31.55;;;11.27;;
70071;SDS011;57434;42.794;23.302;2023-01-08T03:05:45;26.88;;;10.25;;
70071;SDS011;57434;42.794;23.302;2023-01-08T03:06:50;23.35;;;8.70;;
70071;SDS011;57434;42.794;23.302;2023-01-08T03:07:53;20.15;;;8.68;;
70071;SDS011;57434;42.794;23.302;2023-01-08T03:08:55;22.63;;;8.57;;
70071;SDS011;57434;42.794;23.302;2023-01-08T03:09:59;22.20;;;10.30;;
70071;SDS011;57434;42.794;23.302;2023-01-08T03:11:05;24.25;;;8.80;;
70071;SDS011;57434;42.794;23.302;2023-01-08T03:12:15;27.17;;;9.67;;
70071;SDS011;57434;42.794;23.302;2023-01-08T03:13:23;19.95;;;8.35;;
70071;SDS011;57434;42.794;23.302;2023-01-08T03:14:35;18.23;;;8.05;;
70071;SDS011;57434;42.794;23.302;2023-01-08T03:15:51;21.92;;;8.50;;
70071;SDS011;57434;42.794;23.302;2023-01-08T03:17:10;24.02;;;9.48;;
70071;SDS011;57434;42.794;23.302;2023-01-08T03:18:14;24.10;;;7.45;;
70071;SDS011;57434;42.794;23.302;2023-01-08T03:19:31;17.20;;;7.88;;
70071;SDS011;57434;42.794;23.302;2023-01-08T03:20:44;19.42;;;8.27;;
70071;SDS011;57434;42.794;23.302;2023-01-08T03:21:48;18.70;;;7.80;;
70071;SDS011;57434;42.794;23.302;2023-01-08T03:22:53;23.65;;;8.45;;
70071;SDS011;57434;42.794;23.302;2023-01-08T03:23:57;21.03;;;8.70;;
70071;SDS011;57434;42.794;23.302;2023-01-08T03:25:00;23.02;;;8.07;;
70071;SDS011;57434;42.794;23.302;2023-01-08T03:26:04;23.50;;;8.38;;
70071;SDS011;57434;42.794;23.302;2023-01-08T03:27:08;23.88;;;10.90;;
70071;SDS011;57434;42.794;23.302;2023-01-08T03:28:22;18.60;;;8.93;;
70071;SDS011;57434;42.794;23.302;2023-01-08T03:29:27;27.55;;;11.60;;
70071;SDS011;57434;42.794;23.302;2023-01-08T03:30:29;25.05;;;11.02;;
70071;SDS011;57434;42.794;23.302;2023-01-08T03:31:31;31.83;;;11.35;;
70071;SDS011;57434;42.794;23.302;2023-01-08T03:32:34;28.75;;;12.88;;
70071;SDS011;57434;42.794;23.302;2023-01-08T03:33:39;42.50;;;17.08;;
70071;SDS011;57434;42.794;23.302;2023-01-08T03:34:43;40.80;;;15.27;;
70071;SDS011;57434;42.794;23.302;2023-01-08T03:35:48;42.58;;;16.58;;
70071;SDS011;57434;42.794;23.302;2023-01-08T03:36:54;42.47;;;16.45;;
70071;SDS011;57434;42.794;23.302;2023-01-08T03:38:16;33.58;;;13.48;;
70071;SDS011;57434;42.794;23.302;2023-01-08T03:39:27;31.73;;;14.07;;
70071;SDS011;57434;42.794;23.302;2023-01-08T03:40:38;26.30;;;12.05;;
70071;SDS011;57434;42.794;23.302;2023-01-08T03:41:45;26.70;;;11.73;;
70071;SDS011;57434;42.794;23.302;2023-01-08T03:42:49;25.30;;;11.73;;
70071;SDS011;57434;42.794;23.302;2023-01-08T03:43:51;26.35;;;11.57;;
70071;SDS011;57434;42.794;23.302;2023-01-08T03:44:52;20.88;;;8.38;;
70071;SDS011;57434;42.794;23.302;2023-01-08T03:45:59;20.17;;;9.00;;
70071;SDS011;57434;42.794;23.302;2023-01-08T03:47:04;22.05;;;8.43;;
70071;SDS011;57434;42.794;23.302;2023-01-08T03:48:09;23.13;;;9.02;;
70071;SDS011;57434;42.794;23.302;2023-01-08T03:49:11;18.40;;;9.05;;
70071;SDS011;57434;42.794;23.302;2023-01-08T03:50:15;23.30;;;8.88;;
70071;SDS011;57434;42.794;23.302;2023-01-08T03:51:21;25.15;;;8.57;;
70071;SDS011;57434;42.794;23.302;2023-01-08T03:52:24;26.75;;;9.10;;
70071;SDS011;57434;42.794;23.302;2023-01-08T03:53:27;21.77;;;9.32;;
70071;SDS011;57434;42.794;23.302;2023-01-08T03:54:29;30.33;;;9.85;;
70071;SDS011;57434;42.794;23.302;2023-01-08T03:55:32;27.48;;;9.80;;
70071;SDS011;57434;42.794;23.302;2023-01-08T03:56:34;23.97;;;9.57;;
70071;SDS011;57434;42.794;23.302;2023-01-08T03:57:36;25.70;;;10.27;;
70071;SDS011;57434;42.794;23.302;2023-01-08T03:58:37;22.75;;;9.85;;
70071;SDS011;57434;42.794;23.302;2023-01-08T03:59:39;19.85;;;9.15;;
70071;SDS011;57434;42.794;23.302;2023-01-08T04:00:41;22.73;;;9.52;;
70071;SDS011;57434;42.794;23.302;2023-01-08T04:01:43;22.10;;;8.75;;
70071;SDS011;57434;42.794;23.302;2023-01-08T04:02:45;25.35;;;9.73;;
70071;SDS011;57434;42.794;23.302;2023-01-08T04:03:47;24.30;;;9.30;;
70071;SDS011;57434;42.794;23.302;2023-01-08T04:04:48;23.10;;;9.70;;
70071;SDS011;57434;42.794;23.302;2023-01-08T04:05:50;23.35;;;9.25;;
70071;SDS011;57434;42.794;23.302;2023-01-08T04:06:52;24.43;;;9.13;;
70071;SDS011;57434;42.794;23.302;2023-01-08T04:07:54;23.92;;;9.43;;
70071;SDS011;57434;42.794;23.302;2023-01-08T04:08:56;22.23;;;8.75;;
70071;SDS011;57434;42.794;23.302;2023-01-08T04:09:58;18.55;;;7.85;;
70071;SDS011;57434;42.794;23.302;2023-01-08T04:11:00;21.55;;;8.38;;
70071;SDS011;57434;42.794;23.302;2023-01-08T04:12:02;21.23;;;8.05;;
70071;SDS011;57434;42.794;23.302;2023-01-08T04:13:04;23.30;;;6.75;;
70071;SDS011;57434;42.794;23.302;2023-01-08T04:14:05;17.58;;;7.03;;
70071;SDS011;57434;42.794;23.302;2023-01-08T04:15:07;18.77;;;7.60;;
70071;SDS011;57434;42.794;23.302;2023-01-08T04:16:09;22.92;;;8.75;;
70071;SDS011;57434;42.794;23.302;2023-01-08T04:17:12;20.73;;;7.80;;
70071;SDS011;57434;42.794;23.302;2023-01-08T04:18:14;23.13;;;8.18;;
70071;SDS011;57434;42.794;23.302;2023-01-08T04:19:16;19.77;;;6.97;;
70071;SDS011;57434;42.794;23.302;2023-01-08T04:20:18;22.40;;;7.88;;
70071;SDS011;57434;42.794;23.302;2023-01-08T04:21:20;20.63;;;7.82;;
70071;SDS011;57434;42.794;23.302;2023-01-08T04:22:22;21.27;;;8.73;;
70071;SDS011;57434;42.794;23.302;2023-01-08T04:23:24;21.60;;;8.30;;
70071;SDS011;57434;42.794;23.302;2023-01-08T04:24:26;22.08;;;7.45;;
70071;SDS011;57434;42.794;23.302;2023-01-08T04:25:27;26.40;;;8.13;;
70071;SDS011;57434;42.794;23.302;2023-01-08T04:26:29;19.35;;;6.50;;
70071;SDS011;57434;42.794;23.302;2023-01-08T04:27:32;20.60;;;7.47;;
70071;SDS011;57434;42.794;23.302;2023-01-08T04:28:34;17.63;;;8.18;;
70071;SDS011;57434;42.794;23.302;2023-01-08T04:29:36;22.45;;;7.82;;
70071;SDS011;57434;42.794;23.302;2023-01-08T04:30:38;16.60;;;6.57;;
70071;SDS011;57434;42.794;23.302;2023-01-08T04:31:40;18.50;;;7.50;;
70071;SDS011;57434;42.794;23.302;2023-01-08T04:32:41;17.55;;;6.38;;
70071;SDS011;57434;42.794;23.302;2023-01-08T04:33:43;20.63;;;7.50;;
70071;SDS011;57434;42.794;23.302;2023-01-08T04:34:45;21.98;;;7.70;;
70071;SDS011;57434;42.794;23.302;2023-01-08T04:35:47;20.80;;;8.30;;
70071;SDS011;57434;42.794;23.302;2023-01-08T04:36:49;24.83;;;8.55;;
70071;SDS011;57434;42.794;23.302;2023-01-08T04:37:50;23.63;;;8.23;;
70071;SDS011;57434;42.794;23.302;2023-01-08T04:38:52;18.27;;;7.45;;
70071;SDS011;57434;42.794;23.302;2023-01-08T04:39:54;19.27;;;7.90;;
70071;SDS011;57434;42.794;23.302;2023-01-08T04:40:56;24.75;;;9.02;;
70071;SDS011;57434;42.794;23.302;2023-01-08T04:41:58;19.10;;;7.93;;
70071;SDS011;57434;42.794;23.302;2023-01-08T04:43:00;18.27;;;8.00;;
70071;SDS011;57434;42.794;23.302;2023-01-08T04:44:02;24.27;;;9.07;;
70071;SDS011;57434;42.794;23.302;2023-01-08T04:45:05;20.45;;;7.68;;
70071;SDS011;57434;42.794;23.302;2023-01-08T04:46:08;18.30;;;7.53;;
70071;SDS011;57434;42.794;23.302;2023-01-08T04:47:09;17.75;;;7.25;;
70071;SDS011;57434;42.794;23.302;2023-01-08T04:48:11;18.97;;;7.53;;
70071;SDS011;57434;42.794;23.302;2023-01-08T04:49:13;22.95;;;8.25;;
70071;SDS011;57434;42.794;23.302;2023-01-08T04:50:15;17.58;;;7.43;;
70071;SDS011;57434;42.794;23.302;2023-01-08T04:51:17;22.13;;;7.63;;
70071;SDS011;57434;42.794;23.302;2023-01-08T04:52:18;21.73;;;7.85;;
70071;SDS011;57434;42.794;23.302;2023-01-08T04:53:20;24.25;;;8.13;;
70071;SDS011;57434;42.794;23.302;2023-01-08T04:54:22;27.15;;;8.32;;
70071;SDS011;57434;42.794;23.302;2023-01-08T04:55:23;35.65;;;9.52;;
70071;SDS011;57434;42.794;23.302;2023-01-08T04:56:25;35.00;;;9.85;;
70071;SDS011;57434;42.794;23.302;2023-01-08T04:57:27;32.97;;;11.07;;
70071;SDS011;57434;42.794;23.302;2023-01-08T04:58:29;26.87;;;10.23;;
70071;SDS011;57434;42.794;23.302;2023-01-08T04:59:30;34.83;;;10.77;;
70071;SDS011;57434;42.794;23.302;2023-01-08T05:00:32;25.42;;;9.35;;
70071;SDS011;57434;42.794;23.302;2023-01-08T05:01:34;26.02;;;10.68;;
70071;SDS011;57434;42.794;23.302;2023-01-08T05:02:36;28.50;;;10.95;;
70071;SDS011;57434;42.794;23.302;2023-01-08T05:03:38;25.75;;;9.10;;
70071;SDS011;57434;42.794;23.302;2023-01-08T05:04:40;27.33;;;9.95;;
70071;SDS011;57434;42.794;23.302;2023-01-08T05:05:42;28.27;;;9.07;;
70071;SDS011;57434;42.794;23.302;2023-01-08T05:06:44;28.90;;;9.93;;
70071;SDS011;57434;42.794;23.302;2023-01-08T05:07:46;29.98;;;10.10;;
70071;SDS011;57434;42.794;23.302;2023-01-08T05:08:48;30.17;;;10.27;;
70071;SDS011;57434;42.794;23.302;2023-01-08T05:09:50;30.70;;;10.45;;
70071;SDS011;57434;42.794;23.302;2023-01-08T05:10:52;29.17;;;9.98;;
70071;SDS011;57434;42.794;23.302;2023-01-08T05:11:54;28.90;;;9.32;;
70071;SDS011;57434;42.794;23.302;2023-01-08T05:12:58;30.83;;;9.32;;
70071;SDS011;57434;42.794;23.302;2023-01-08T05:14:01;31.40;;;10.63;;
70071;SDS011;57434;42.794;23.302;2023-01-08T05:15:03;33.92;;;11.65;;
70071;SDS011;57434;42.794;23.302;2023-01-08T05:16:05;31.67;;;11.63;;
70071;SDS011;57434;42.794;23.302;2023-01-08T05:17:07;24.48;;;8.65;;
70071;SDS011;57434;42.794;23.302;2023-01-08T05:18:09;35.10;;;10.60;;
70071;SDS011;57434;42.794;23.302;2023-01-08T05:19:11;25.43;;;8.70;;
70071;SDS011;57434;42.794;23.302;2023-01-08T05:20:13;24.35;;;8.90;;
70071;SDS011;57434;42.794;23.302;2023-01-08T05:21:15;32.17;;;10.98;;
70071;SDS011;57434;42.794;23.302;2023-01-08T05:22:17;30.30;;;9.93;;
70071;SDS011;57434;42.794;23.302;2023-01-08T05:23:19;33.92;;;10.45;;
70071;SDS011;57434;42.794;23.302;2023-01-08T05:24:20;35.33;;;10.88;;
70071;SDS011;57434;42.794;23.302;2023-01-08T05:25:22;26.27;;;8.60;;
70071;SDS011;57434;42.794;23.302;2023-01-08T05:26:24;29.45;;;11.18;;
70071;SDS011;57434;42.794;23.302;2023-01-08T05:27:27;41.28;;;12.55;;
70071;SDS011;57434;42.794;23.302;2023-01-08T05:28:29;27.30;;;10.23;;
70071;SDS011;57434;42.794;23.302;2023-01-08T05:29:31;27.70;;;9.40;;
70071;SDS011;57434;42.794;23.302;2023-01-08T05:30:33;35.83;;;10.70;;
70071;SDS011;57434;42.794;23.302;2023-01-08T05:31:36;32.38;;;9.60;;
70071;SDS011;57434;42.794;23.302;2023-01-08T05:32:38;31.70;;;10.50;;
70071;SDS011;57434;42.794;23.302;2023-01-08T05:33:39;33.20;;;11.20;;
70071;SDS011;57434;42.794;23.302;2023-01-08T05:34:42;30.42;;;11.15;;
70071;SDS011;57434;42.794;23.302;2023-01-08T05:35:44;34.00;;;9.95;;
70071;SDS011;57434;42.794;23.302;2023-01-08T05:36:46;33.75;;;11.45;;
70071;SDS011;57434;42.794;23.302;2023-01-08T05:37:48;45.92;;;14.20;;
70071;SDS011;57434;42.794;23.302;2023-01-08T05:38:49;36.95;;;11.18;;
70071;SDS011;57434;42.794;23.302;2023-01-08T05:39:51;32.73;;;11.50;;
70071;SDS011;57434;42.794;23.302;2023-01-08T05:40:53;29.40;;;9.75;;
70071;SDS011;57434;42.794;23.302;2023-01-08T05:41:55;31.98;;;11.32;;
70071;SDS011;57434;42.794;23.302;2023-01-08T05:42:59;32.35;;;9.85;;
70071;SDS011;57434;42.794;23.302;2023-01-08T05:44:02;29.08;;;10.15;;
70071;SDS011;57434;42.794;23.302;2023-01-08T05:45:04;30.75;;;10.98;;
70071;SDS011;57434;42.794;23.302;2023-01-08T05:46:07;33.55;;;11.57;;
70071;SDS011;57434;42.794;23.302;2023-01-08T05:47:09;31.15;;;9.65;;
70071;SDS011;57434;42.794;23.302;2023-01-08T05:48:11;27.60;;;10.02;;
70071;SDS011;57434;42.794;23.302;2023-01-08T05:49:13;31.77;;;10.02;;
70071;SDS011;57434;42.794;23.302;2023-01-08T05:50:17;32.90;;;11.50;;
70071;SDS011;57434;42.794;23.302;2023-01-08T05:51:19;36.40;;;12.27;;
70071;SDS011;57434;42.794;23.302;2023-01-08T05:52:20;41.40;;;11.88;;
70071;SDS011;57434;42.794;23.302;2023-01-08T05:53:22;40.65;;;11.68;;
70071;SDS011;57434;42.794;23.302;2023-01-08T05:54:24;35.65;;;11.57;;
70071;SDS011;57434;42.794;23.302;2023-01-08T05:55:26;29.50;;;11.07;;
70071;SDS011;57434;42.794;23.302;2023-01-08T05:56:27;34.70;;;11.35;;
70071;SDS011;57434;42.794;23.302;2023-01-08T05:57:29;38.03;;;10.25;;
70071;SDS011;57434;42.794;23.302;2023-01-08T05:58:31;30.67;;;10.32;;
70071;SDS011;57434;42.794;23.302;2023-01-08T05:59:32;30.85;;;10.65;;
70071;SDS011;57434;42.794;23.302;2023-01-08T06:00:34;25.23;;;9.83;;
70071;SDS011;57434;42.794;23.302;2023-01-08T06:01:36;28.63;;;10.73;;
70071;SDS011;57434;42.794;23.302;2023-01-08T06:02:38;24.73;;;8.93;;
70071;SDS011;57434;42.794;23.302;2023-01-08T06:03:40;28.33;;;11.02;;
70071;SDS011;57434;42.794;23.302;2023-01-08T06:04:42;29.25;;;10.93;;
70071;SDS011;57434;42.794;23.302;2023-01-08T06:05:44;31.60;;;11.43;;
70071;SDS011;57434;42.794;23.302;2023-01-08T06:06:46;25.83;;;9.50;;
70071;SDS011;57434;42.794;23.302;2023-01-08T06:07:48;25.08;;;9.30;;
70071;SDS011;57434;42.794;23.302;2023-01-08T06:08:49;20.88;;;8.48;;
70071;SDS011;57434;42.794;23.302;2023-01-08T06:09:51;20.55;;;7.88;;
70071;SDS011;57434;42.794;23.302;2023-01-08T06:10:53;18.33;;;7.97;;
70071;SDS011;57434;42.794;23.302;2023-01-08T06:11:55;21.67;;;8.43;;
70071;SDS011;57434;42.794;23.302;2023-01-08T06:12:57;23.85;;;8.38;;
70071;SDS011;57434;42.794;23.302;2023-01-08T06:13:59;25.77;;;8.70;;
70071;SDS011;57434;42.794;23.302;2023-01-08T06:15:01;25.52;;;9.38;;
70071;SDS011;57434;42.794;23.302;2023-01-08T06:16:03;25.25;;;8.95;;
70071;SDS011;57434;42.794;23.302;2023-01-08T06:17:06;22.77;;;8.82;;
70071;SDS011;57434;42.794;23.302;2023-01-08T06:18:07;29.48;;;10.63;;
70071;SDS011;57434;42.794;23.302;2023-01-08T06:19:09;33.53;;;13.13;;
70071;SDS011;57434;42.794;23.302;2023-01-08T06:20:12;35.63;;;13.77;;
70071;SDS011;57434;42.794;23.302;2023-01-08T06:21:13;38.20;;;14.10;;
70071;SDS011;57434;42.794;23.302;2023-01-08T06:22:15;32.03;;;13.15;;
70071;SDS011;57434;42.794;23.302;2023-01-08T06:23:17;42.15;;;16.92;;